createdAt,value
2023-04-02T00:00:14.036Z,2.51
2023-04-02T00:03:03.137Z,2.39
2023-04-02T00:05:44.986Z,2.40
2023-04-02T00:08:22.262Z,2.35
2023-04-02T00:10:51.748Z,2.31
2023-04-02T00:13:24.990Z,2.34
2023-04-02T00:15:56.511Z,2.27
2023-04-02T00:18:25.356Z,2.20
2023-04-02T00:20:58.008Z,2.24
2023-04-02T00:23:26.741Z,2.23
2023-04-02T00:25:54.020Z,2.11
2023-04-02T00:28:23.684Z,2.19
2023-04-02T00:30:52.934Z,2.14
2023-04-02T00:33:22.736Z,2.11
2023-04-02T00:35:51.121Z,2.12
2023-04-02T00:38:22.938Z,2.11
2023-04-02T00:40:53.561Z,2.09
2023-04-02T00:43:28.284Z,2.10
2023-04-02T00:45:58.367Z,2.09
2023-04-02T00:48:39.399Z,2.09
2023-04-02T00:51:15.789Z,2.09
2023-04-02T00:53:46.628Z,2.07
2023-04-02T00:56:20.015Z,2.05
2023-04-02T00:58:52.519Z,2.04
2023-04-02T01:01:23.870Z,2.05
2023-04-02T01:03:57.502Z,2.06
2023-04-02T01:06:28.542Z,2.06
2023-04-02T01:09:11.143Z,2.02
2023-04-02T01:12:11.945Z,1.96
2023-04-02T01:14:52.269Z,2.00
2023-04-02T01:17:35.761Z,2.01
2023-04-02T01:20:28.579Z,1.96
2023-04-02T01:23:00.543Z,1.96
2023-04-02T01:25:35.115Z,1.90
2023-04-02T01:28:10.476Z,1.84
2023-04-02T01:30:41.104Z,1.87
2023-04-02T01:33:08.504Z,1.85
2023-04-02T01:35:40.488Z,1.88
2023-04-02T01:38:14.001Z,1.91
2023-04-02T01:40:47.835Z,1.90
2023-04-02T01:43:23.065Z,1.93
2023-04-02T01:45:52.481Z,1.92
2023-04-02T01:48:23.355Z,1.91
2023-04-02T01:50:54.210Z,1.96
2023-04-02T01:53:24.656Z,1.91
2023-04-02T01:55:55.337Z,1.98
2023-04-02T01:58:24.678Z,1.94
2023-04-02T02:01:00.349Z,1.95
2023-04-02T02:03:28.735Z,1.90
2023-04-02T02:05:57.029Z,1.91
2023-04-02T02:08:37.247Z,1.90
2023-04-02T02:11:06.383Z,1.82
2023-04-02T02:13:33.758Z,1.85
2023-04-02T02:16:04.803Z,1.82
2023-04-02T02:18:32.634Z,1.87
2023-04-02T02:21:05.212Z,1.89
2023-04-02T02:23:32.748Z,1.89
2023-04-02T02:25:59.908Z,1.84
2023-04-02T02:28:31.871Z,1.81
2023-04-02T02:31:04.213Z,1.79
2023-04-02T02:33:37.021Z,1.77
2023-04-02T02:36:14.923Z,1.69
2023-04-02T02:38:52.108Z,1.57
2023-04-02T02:41:33.439Z,1.52
2023-04-02T02:44:05.439Z,1.47
2023-04-02T02:46:38.477Z,1.44
2023-04-02T02:49:14.312Z,1.44
2023-04-02T02:51:46.416Z,1.53
2023-04-02T02:54:19.171Z,1.48
2023-04-02T02:56:52.609Z,1.44
2023-04-02T02:59:21.761Z,1.35
2023-04-02T03:01:50.935Z,1.27
2023-04-02T03:04:20.846Z,1.22
2023-04-02T03:06:48.633Z,1.18
2023-04-02T03:09:22.637Z,1.21
2023-04-02T03:11:57.890Z,1.18
2023-04-02T03:14:34.798Z,1.11
2023-04-02T03:17:11.571Z,1.11
2023-04-02T03:19:45.715Z,1.09
2023-04-02T03:22:19.323Z,1.08
2023-04-02T03:24:56.418Z,1.02
2023-04-02T03:27:30.377Z,0.98
2023-04-02T03:30:07.382Z,0.97
2023-04-02T03:32:41.978Z,0.91
2023-04-02T03:35:19.830Z,0.93
2023-04-02T03:37:53.332Z,0.97
2023-04-02T03:40:25.452Z,0.95
2023-04-02T03:42:59.915Z,0.96
2023-04-02T03:45:29.682Z,1.01
2023-04-02T03:48:04.133Z,0.96
2023-04-02T03:50:38.473Z,1.00
2023-04-02T03:53:06.221Z,1.02
2023-04-02T03:55:37.023Z,1.05
2023-04-02T03:58:13.144Z,0.97
2023-04-02T04:00:46.761Z,0.99
2023-04-02T04:03:19.945Z,0.99
2023-04-02T04:05:51.804Z,0.98
2023-04-02T04:08:23.534Z,0.97
2023-04-02T04:10:52.286Z,0.98
2023-04-02T04:13:25.639Z,0.95
2023-04-02T04:16:00.282Z,0.94
2023-04-02T04:18:35.162Z,0.93
2023-04-02T04:21:15.713Z,0.98
2023-04-02T04:23:50.429Z,0.99
2023-04-02T04:26:24.289Z,0.95
2023-04-02T04:29:05.021Z,0.98
2023-04-02T04:31:39.338Z,1.04
2023-04-02T04:34:15.343Z,1.04
2023-04-02T04:36:47.321Z,1.04
2023-04-02T04:39:21.212Z,1.00
2023-04-02T04:41:51.840Z,0.96
2023-04-02T04:44:23.942Z,0.95
2023-04-02T04:47:00.865Z,0.93
2023-04-02T04:49:35.797Z,0.89
2023-04-02T04:52:10.160Z,0.99
2023-04-02T04:54:39.816Z,0.89
2023-04-02T04:57:23.978Z,0.96
2023-04-02T04:59:57.700Z,0.98
2023-04-02T05:02:32.281Z,0.95
2023-04-02T05:05:04.026Z,0.93
2023-04-02T05:07:44.508Z,1.02
2023-04-02T05:10:19.587Z,1.05
2023-04-02T05:12:54.398Z,1.06
2023-04-02T05:15:29.000Z,1.11
2023-04-02T05:18:16.164Z,1.16
2023-04-02T05:20:51.211Z,1.24
2023-04-02T05:23:25.215Z,1.27
2023-04-02T05:26:00.189Z,1.31
2023-04-02T05:28:33.659Z,1.42
2023-04-02T05:31:05.796Z,1.50
2023-04-02T05:33:37.033Z,1.57
2023-04-02T05:36:11.954Z,1.67
2023-04-02T05:38:49.942Z,1.74
2023-04-02T05:41:26.869Z,1.81
2023-04-02T05:44:03.701Z,1.89
2023-04-02T05:46:36.474Z,1.96
2023-04-02T05:49:11.782Z,2.07
2023-04-02T05:51:45.666Z,2.10
2023-04-02T05:54:20.613Z,2.21
2023-04-02T05:56:52.124Z,2.20
2023-04-02T05:59:23.619Z,2.29
2023-04-02T06:01:56.900Z,2.34
2023-04-02T06:04:35.592Z,2.45
2023-04-02T06:07:10.934Z,2.43
2023-04-02T06:09:49.009Z,2.52
2023-04-02T06:12:24.097Z,2.56
2023-04-02T06:14:51.771Z,2.64
2023-04-02T06:17:21.669Z,2.61
2023-04-02T06:19:50.585Z,2.71
2023-04-02T06:22:24.599Z,2.77
2023-04-02T06:25:01.536Z,2.76
2023-04-02T06:27:30.719Z,2.94
2023-04-02T06:30:02.625Z,2.98
2023-04-02T06:32:31.707Z,3.06
2023-04-02T06:34:59.158Z,3.05
2023-04-02T06:37:32.737Z,3.19
2023-04-02T06:40:39.961Z,3.21
2023-04-02T06:43:20.845Z,3.31
2023-04-02T06:46:09.471Z,3.38
2023-04-02T06:49:05.320Z,3.29
2023-04-02T06:51:36.642Z,3.19
2023-04-02T06:54:12.762Z,3.27
2023-04-02T06:56:43.162Z,3.26
2023-04-02T06:59:13.363Z,3.26
2023-04-02T07:01:45.018Z,3.23
2023-04-02T07:04:13.234Z,3.27
2023-04-02T07:06:43.690Z,3.21
2023-04-02T07:09:15.132Z,3.17
2023-04-02T07:11:46.793Z,3.30
2023-04-02T07:14:14.926Z,3.27
2023-04-02T07:16:44.087Z,3.38
2023-04-02T07:19:18.171Z,3.46
2023-04-02T07:21:46.009Z,3.62
2023-04-02T07:24:14.974Z,3.95
2023-04-02T07:26:42.341Z,4.06
2023-04-02T07:29:14.636Z,4.01
2023-04-02T07:31:42.020Z,4.20
2023-04-02T07:34:10.175Z,4.28
2023-04-02T07:36:37.724Z,4.14
2023-04-02T07:39:05.000Z,3.99
2023-04-02T07:41:33.678Z,3.95
2023-04-02T07:44:00.940Z,3.92
2023-04-02T07:46:28.215Z,4.06
2023-04-02T07:48:55.543Z,3.97
2023-04-02T07:51:24.836Z,4.01
2023-04-02T07:53:52.634Z,3.96
2023-04-02T07:56:20.361Z,3.97
2023-04-02T07:58:49.083Z,4.01
2023-04-02T08:01:19.682Z,4.16
2023-04-02T08:03:47.525Z,4.20
2023-04-02T08:06:14.939Z,4.22
2023-04-02T08:08:42.580Z,4.42
2023-04-02T08:11:10.710Z,4.61
2023-04-02T08:13:38.402Z,4.75
2023-04-02T08:16:07.939Z,4.84
2023-04-02T08:18:35.836Z,4.67
2023-04-02T08:21:05.517Z,4.79
2023-04-02T08:23:32.724Z,4.88
2023-04-02T08:26:00.039Z,4.87
2023-04-02T08:28:30.427Z,4.96
2023-04-02T08:30:59.184Z,5.10
2023-04-02T08:33:28.431Z,5.13
2023-04-02T08:35:55.879Z,5.14
2023-04-02T08:38:23.235Z,5.12
2023-04-02T08:40:54.193Z,5.19
2023-04-02T08:43:43.718Z,5.20
2023-04-02T08:46:19.334Z,5.37
2023-04-02T08:48:53.947Z,5.54
2023-04-02T08:51:23.971Z,5.51
2023-04-02T08:53:54.125Z,5.67
2023-04-02T08:56:29.037Z,5.83
2023-04-02T08:59:01.356Z,6.15
2023-04-02T09:01:36.281Z,6.11
2023-04-02T09:04:13.418Z,6.06
2023-04-02T09:06:41.980Z,6.06
2023-04-02T09:09:11.413Z,6.26
2023-04-02T09:11:44.254Z,6.46
2023-04-02T09:14:17.667Z,6.36
2023-04-02T09:16:48.312Z,6.43
2023-04-02T09:19:21.241Z,6.57
2023-04-02T09:22:00.400Z,6.74
2023-04-02T09:24:27.800Z,6.70
2023-04-02T09:26:55.000Z,6.79
2023-04-02T09:29:44.208Z,6.88
2023-04-02T09:32:27.146Z,7.02
2023-04-02T09:35:18.443Z,7.23
2023-04-02T09:38:17.548Z,7.41
2023-04-02T09:40:48.387Z,7.33
2023-04-02T09:43:17.916Z,7.40
2023-04-02T09:45:56.612Z,7.39
2023-04-02T09:48:27.818Z,7.68
2023-04-02T09:51:06.661Z,7.68
2023-04-02T09:53:36.462Z,7.64
2023-04-02T09:56:12.754Z,7.26
2023-04-02T09:58:41.159Z,7.19
2023-04-02T10:01:29.713Z,7.64
2023-04-02T10:03:57.665Z,7.96
2023-04-02T10:06:28.935Z,9.25
2023-04-02T10:08:56.990Z,9.05
2023-04-02T10:11:36.460Z,8.92
2023-04-02T10:14:18.591Z,9.83
2023-04-02T10:16:50.555Z,9.49
2023-04-02T10:19:26.587Z,11.14
2023-04-02T10:21:57.964Z,11.61
2023-04-02T10:24:27.797Z,12.62
2023-04-02T10:27:03.658Z,12.44
2023-04-02T10:29:55.426Z,13.67
2023-04-02T10:32:26.357Z,13.23
2023-04-02T10:34:58.397Z,12.51
2023-04-02T10:37:59.815Z,12.09
2023-04-02T10:40:29.134Z,11.29
2023-04-02T10:43:28.954Z,10.93
2023-04-02T10:46:02.266Z,10.66
2023-04-02T10:48:39.171Z,11.07
2023-04-02T10:51:12.126Z,11.30
2023-04-02T10:53:47.609Z,11.31
2023-04-02T10:56:16.249Z,11.88
2023-04-02T10:58:54.988Z,12.11
2023-04-02T11:01:26.954Z,12.77
2023-04-02T11:03:58.748Z,11.88
2023-04-02T11:06:31.571Z,12.03
2023-04-02T11:09:03.335Z,11.10
2023-04-02T11:11:36.023Z,11.11
2023-04-02T11:14:10.723Z,11.41
2023-04-02T11:16:42.531Z,12.30
2023-04-02T11:19:26.460Z,12.76
2023-04-02T11:21:59.894Z,13.38
2023-04-02T11:24:38.522Z,14.20
2023-04-02T11:27:15.008Z,14.96
2023-04-02T11:29:44.336Z,15.57
2023-04-02T11:32:27.479Z,15.62
2023-04-02T11:35:22.836Z,15.10
2023-04-02T11:37:50.133Z,14.38
2023-04-02T11:40:48.276Z,16.11
2023-04-02T11:43:50.012Z,15.72
2023-04-02T11:46:39.857Z,15.94
2023-04-02T11:49:39.287Z,15.32
2023-04-02T11:52:25.368Z,14.63
2023-04-02T11:54:58.291Z,15.32
2023-04-02T11:57:45.575Z,15.73
2023-04-02T12:00:25.860Z,16.28
2023-04-02T12:03:14.759Z,15.35
2023-04-02T12:05:51.330Z,16.15
2023-04-02T12:08:29.310Z,15.58
2023-04-02T12:10:59.414Z,14.83
2023-04-02T12:13:51.127Z,14.35
2023-04-02T12:16:19.453Z,14.92
2023-04-02T12:18:48.592Z,14.98
2023-04-02T12:21:17.306Z,15.76
2023-04-02T12:23:46.827Z,14.90
2023-04-02T12:26:28.031Z,15.72
2023-04-02T12:29:14.522Z,15.28
2023-04-02T12:31:43.076Z,15.90
2023-04-02T12:34:14.833Z,14.48
2023-04-02T12:37:00.576Z,15.12
2023-04-02T12:39:33.535Z,15.65
2023-04-02T12:42:01.278Z,15.55
2023-04-02T12:44:30.748Z,17.49
2023-04-02T12:46:58.917Z,17.44
2023-04-02T12:49:34.145Z,17.84
2023-04-02T12:52:04.096Z,14.92
2023-04-02T12:54:36.946Z,15.27
2023-04-02T12:57:21.483Z,15.83
2023-04-02T12:59:50.215Z,17.15
2023-04-02T13:02:19.688Z,16.08
2023-04-02T13:04:48.169Z,15.88
2023-04-02T13:07:17.133Z,17.46
2023-04-02T13:09:47.514Z,16.96
2023-04-02T13:12:32.323Z,17.63
2023-04-02T13:15:03.619Z,17.55
2023-04-02T13:17:42.861Z,17.53
2023-04-02T13:20:31.710Z,15.25
2023-04-02T13:23:00.916Z,14.74
2023-04-02T13:25:30.927Z,16.55
2023-04-02T13:27:58.774Z,15.35
2023-04-02T13:30:29.074Z,15.81
2023-04-02T13:32:56.435Z,16.38
2023-04-02T13:35:23.806Z,16.73
2023-04-02T13:37:51.182Z,16.77
2023-04-02T13:40:18.629Z,16.84
2023-04-02T13:42:46.406Z,16.87
2023-04-02T13:45:26.501Z,16.97
2023-04-02T13:47:55.323Z,16.57
2023-04-02T13:50:23.673Z,16.70
2023-04-02T13:52:51.912Z,17.31
2023-04-02T13:55:21.589Z,17.60
2023-04-02T13:57:49.396Z,17.25
2023-04-02T14:00:17.786Z,17.70
2023-04-02T14:02:49.121Z,17.48
2023-04-02T14:05:30.919Z,18.07
2023-04-02T14:08:08.917Z,15.26
2023-04-02T14:10:51.316Z,15.68
2023-04-02T14:13:42.974Z,15.53
2023-04-02T14:16:36.981Z,16.72
2023-04-02T14:19:19.991Z,15.83
2023-04-02T14:22:01.707Z,16.04
2023-04-02T14:24:40.280Z,17.34
2023-04-02T14:27:22.281Z,15.92
2023-04-02T14:29:59.929Z,15.83
2023-04-02T14:32:33.620Z,15.85
2023-04-02T14:35:10.052Z,15.77
2023-04-02T14:37:45.638Z,16.21
2023-04-02T14:40:21.324Z,16.82
2023-04-02T14:42:55.981Z,16.64
2023-04-02T14:45:34.968Z,16.74
2023-04-02T14:48:08.621Z,18.49
2023-04-02T14:50:38.686Z,16.40
2023-04-02T14:53:18.069Z,16.62
2023-04-02T14:55:49.763Z,16.73
2023-04-02T14:58:22.115Z,17.81
2023-04-02T15:00:57.475Z,17.85
2023-04-02T15:03:29.118Z,17.13
2023-04-02T15:05:59.624Z,15.91
2023-04-02T15:08:33.229Z,16.02
2023-04-02T15:11:08.088Z,17.17
2023-04-02T15:13:38.516Z,16.69
2023-04-02T15:16:11.441Z,16.22
2023-04-02T15:18:39.003Z,16.40
2023-04-02T15:21:24.332Z,15.82
2023-04-02T15:23:59.755Z,15.96
2023-04-02T15:26:39.702Z,16.55
2023-04-02T15:29:28.307Z,15.82
2023-04-02T15:32:04.067Z,15.52
2023-04-02T15:34:34.989Z,16.29
2023-04-02T15:37:10.710Z,15.53
2023-04-02T15:39:56.655Z,16.09
2023-04-02T15:42:27.652Z,15.98
2023-04-02T15:45:21.694Z,15.94
2023-04-02T15:48:09.513Z,15.87
2023-04-02T15:50:46.409Z,16.56
2023-04-02T15:53:34.093Z,15.96
2023-04-02T15:56:14.562Z,15.23
2023-04-02T15:58:58.723Z,15.49
2023-04-02T16:01:34.136Z,15.42
2023-04-02T16:04:29.498Z,15.50
2023-04-02T16:07:10.746Z,15.36
2023-04-02T16:09:48.041Z,16.36
2023-04-02T16:12:19.748Z,15.57
2023-04-02T16:14:48.776Z,15.08
2023-04-02T16:17:24.865Z,15.84
2023-04-02T16:19:56.876Z,15.79
2023-04-02T16:22:27.919Z,14.84
2023-04-02T16:25:00.419Z,14.63
2023-04-02T16:27:34.115Z,14.40
2023-04-02T16:30:19.457Z,13.99
2023-04-02T16:33:10.183Z,13.62
2023-04-02T16:35:45.931Z,14.53
2023-04-02T16:38:30.337Z,14.17
2023-04-02T16:41:08.808Z,13.68
2023-04-02T16:43:47.129Z,14.33
2023-04-02T16:46:38.283Z,14.52
2023-04-02T16:49:17.602Z,14.17
2023-04-02T16:51:52.164Z,14.28
2023-04-02T16:54:26.811Z,14.39
2023-04-02T16:57:17.509Z,13.74
2023-04-02T16:59:56.927Z,13.40
2023-04-02T17:02:37.414Z,13.35
2023-04-02T17:05:15.036Z,12.84
2023-04-02T17:07:48.303Z,12.63
2023-04-02T17:10:29.024Z,12.33
2023-04-02T17:13:03.239Z,12.00
2023-04-02T17:15:37.405Z,12.65
2023-04-02T17:18:13.663Z,12.16
2023-04-02T17:20:41.823Z,12.15
2023-04-02T17:23:12.356Z,12.46
2023-04-02T17:25:46.554Z,11.77
2023-04-02T17:28:18.461Z,12.32
2023-04-02T17:30:50.751Z,12.18
2023-04-02T17:33:19.180Z,12.09
2023-04-02T17:35:55.020Z,11.73
2023-04-02T17:38:32.260Z,11.52
2023-04-02T17:41:06.379Z,11.00
2023-04-02T17:43:41.240Z,10.83
2023-04-02T17:46:18.748Z,10.61
2023-04-02T17:48:47.385Z,10.12
2023-04-02T17:51:23.156Z,9.88
2023-04-02T17:54:02.937Z,9.33
2023-04-02T17:56:45.921Z,9.27
2023-04-02T17:59:39.129Z,8.70
2023-04-02T18:02:27.120Z,8.55
2023-04-02T18:05:04.341Z,8.52
2023-04-02T18:07:40.121Z,8.30
2023-04-02T18:10:15.307Z,8.24
2023-04-02T18:12:54.823Z,8.10
2023-04-02T18:15:44.331Z,7.97
2023-04-02T18:18:26.071Z,7.91
2023-04-02T18:21:02.186Z,7.91
2023-04-02T18:23:42.997Z,7.84
2023-04-02T18:26:18.261Z,7.62
2023-04-02T18:28:56.839Z,7.40
2023-04-02T18:31:37.836Z,7.31
2023-04-02T18:34:34.353Z,7.30
2023-04-02T18:37:16.840Z,7.32
2023-04-02T18:39:56.998Z,6.97
2023-04-02T18:42:40.643Z,6.97
2023-04-02T18:45:16.698Z,6.89
2023-04-02T18:47:49.191Z,6.91
2023-04-02T18:50:24.345Z,6.87
2023-04-02T18:52:51.703Z,6.79
2023-04-02T18:55:22.242Z,6.82
2023-04-02T18:57:55.268Z,6.85
2023-04-02T19:00:28.214Z,6.67
2023-04-02T19:03:00.415Z,6.49
2023-04-02T19:05:39.001Z,6.45
2023-04-02T19:08:13.763Z,6.48
2023-04-02T19:10:44.187Z,6.28
2023-04-02T19:13:16.627Z,6.44
2023-04-02T19:15:58.104Z,6.34
2023-04-02T19:18:37.813Z,6.28
2023-04-02T19:21:12.681Z,6.27
2023-04-02T19:24:01.602Z,6.03
2023-04-02T19:26:35.702Z,6.08
2023-04-02T19:29:19.684Z,6.18
2023-04-02T19:31:54.573Z,6.07
2023-04-02T19:34:29.638Z,5.93
2023-04-02T19:37:04.727Z,5.88
2023-04-02T19:39:58.741Z,5.81
2023-04-02T19:42:40.841Z,5.67
2023-04-02T19:45:21.745Z,5.63
2023-04-02T19:47:49.306Z,5.65
2023-04-02T19:50:16.685Z,5.51
2023-04-02T19:52:45.418Z,5.39
2023-04-02T19:55:13.084Z,5.34
2023-04-02T19:57:40.463Z,5.18
2023-04-02T20:00:11.502Z,5.10
2023-04-02T20:02:41.603Z,5.12
2023-04-02T20:05:09.635Z,5.08
2023-04-02T20:07:36.962Z,5.01
2023-04-02T20:10:07.380Z,4.95
2023-04-02T20:12:34.795Z,4.90
2023-04-02T20:15:02.717Z,4.92
2023-04-02T20:17:30.060Z,4.76
2023-04-02T20:19:57.835Z,4.80
2023-04-02T20:22:25.106Z,4.82
2023-04-02T20:24:52.278Z,4.76
2023-04-02T20:27:20.909Z,4.75
2023-04-02T20:29:48.350Z,4.87
2023-04-02T20:32:15.681Z,4.72
2023-04-02T20:34:43.639Z,4.73
2023-04-02T20:37:10.987Z,4.64
2023-04-02T20:39:38.203Z,4.61
2023-04-02T20:42:05.581Z,4.59
2023-04-02T20:44:34.368Z,4.52
2023-04-02T20:47:01.948Z,4.46
2023-04-02T20:49:29.158Z,4.49
2023-04-02T20:51:56.546Z,4.39
2023-04-02T20:54:23.986Z,4.41
2023-04-02T20:56:51.502Z,4.26
2023-04-02T20:59:19.152Z,4.17
2023-04-02T21:01:47.880Z,4.23
2023-04-02T21:04:15.220Z,4.14
2023-04-02T21:06:42.644Z,4.12
2023-04-02T21:09:14.783Z,4.03
2023-04-02T21:11:42.577Z,3.98
2023-04-02T21:14:10.815Z,3.96
2023-04-02T21:16:40.359Z,3.96
2023-04-02T21:19:09.806Z,3.96
2023-04-02T21:21:39.041Z,3.92
2023-04-02T21:24:08.296Z,3.83
2023-04-02T21:26:37.611Z,3.80
2023-04-02T21:29:05.901Z,3.87
2023-04-02T21:31:35.337Z,3.83
2023-04-02T21:34:02.989Z,3.75
2023-04-02T21:36:33.611Z,3.68
2023-04-02T21:39:02.503Z,3.69
2023-04-02T21:41:31.535Z,3.66
2023-04-02T21:44:00.835Z,3.61
2023-04-02T21:46:29.836Z,3.50
2023-04-02T21:48:58.533Z,3.47
2023-04-02T21:51:28.176Z,3.47
2023-04-02T21:53:57.923Z,3.46
2023-04-02T21:56:27.101Z,3.49
2023-04-02T21:58:55.452Z,3.40
2023-04-02T22:01:27.589Z,3.33
2023-04-02T22:03:56.956Z,3.31
2023-04-02T22:06:26.504Z,3.42
2023-04-02T22:08:58.344Z,3.35
2023-04-02T22:11:28.617Z,3.28
2023-04-02T22:13:56.309Z,3.20
2023-04-02T22:16:25.458Z,3.18
2023-04-02T22:18:54.174Z,3.20
2023-04-02T22:21:22.142Z,3.11
2023-04-02T22:23:50.185Z,3.10
2023-04-02T22:26:25.704Z,3.08
2023-04-02T22:29:00.343Z,3.06
2023-04-02T22:31:29.636Z,3.07
2023-04-02T22:33:57.548Z,3.05
2023-04-02T22:36:28.481Z,3.02
2023-04-02T22:38:57.102Z,3.03
2023-04-02T22:41:27.416Z,3.02
2023-04-02T22:43:56.038Z,2.92
2023-04-02T22:46:25.070Z,2.97
2023-04-02T22:48:52.842Z,2.92
2023-04-02T22:51:21.913Z,2.79
2023-04-02T22:53:50.223Z,2.84
2023-04-02T22:56:19.460Z,2.83
2023-04-02T22:58:49.025Z,2.77
2023-04-02T23:01:19.252Z,2.84
2023-04-02T23:03:46.629Z,2.70
2023-04-02T23:06:15.962Z,2.61
2023-04-02T23:08:43.618Z,2.61
2023-04-02T23:11:12.992Z,2.53
2023-04-02T23:13:40.998Z,2.46
2023-04-02T23:16:12.900Z,2.49
2023-04-02T23:18:41.546Z,2.46
2023-04-02T23:21:09.958Z,2.51
2023-04-02T23:23:37.429Z,2.29
2023-04-02T23:26:06.524Z,2.38
2023-04-02T23:28:34.596Z,2.28
2023-04-02T23:31:03.388Z,2.26
2023-04-02T23:33:32.576Z,2.28
2023-04-02T23:35:59.828Z,2.20
2023-04-02T23:38:27.350Z,2.15
2023-04-02T23:40:54.588Z,2.16
2023-04-02T23:43:21.911Z,2.14
2023-04-02T23:45:49.466Z,2.02
2023-04-02T23:48:17.295Z,2.04
2023-04-02T23:50:45.937Z,2.08
2023-04-02T23:53:13.976Z,2.02
2023-04-02T23:55:41.233Z,1.87
2023-04-02T23:58:08.508Z,1.86
